CheckWX is a tool to help pilots better visualize weather data.  It is not intended as a substitute for an official pre-flight weather briefing.

12:03:05 UTC

KCRG METAR
Jacksonville Executive at Craig Airport
Jacksonville, Florida, USA
Current

10 mins ago

KCRG 251153Z 20003KT 10SM BKN065 16/14 A3012 RMK AO2 SLP198 T01560139 10161 20128 53003
Observed
Mar-25 @ 11:53 UTC
Wind
  • 200° at 3 KTS
Visibility
10 SM
Flight Rules
VFR
Cloud Levels
  • Broken at 6,500' AGL
Temperature
16°C / 61°F
Dewpoint
14°C / 57°F
Humidity
88%
Altimeter
30.12" Hg
Pressure
1019.8 hPa
Previous

1 hour ago

KCRG 251053Z 15004KT 10SM OVC060 15/13 A3011 RMK AO2 SLP196 T01500133
Observed
Mar-25 @ 10:53 UTC
Wind
  • 150° at 4 KTS
Visibility
10 SM
Flight Rules
VFR
Cloud Levels
  • Overcast at 6,000' AGL
Temperature
15°C / 59°F
Dewpoint
13°C / 55°F
Humidity
88%
Altimeter
30.11" Hg
Pressure
1019.6 hPa
Previous

2 hours ago

KCRG 250953Z 00000KT 10SM BKN060 16/14 A3011 RMK AO2 SLP196 T01560139
Observed
Mar-25 @ 09:53 UTC
Visibility
10 SM
Flight Rules
VFR
Cloud Levels
  • Broken at 6,000' AGL
Temperature
16°C / 61°F
Dewpoint
14°C / 57°F
Humidity
88%
Altimeter
30.11" Hg
Pressure
1019.6 hPa